createdAt,value
2017-07-23T00:00:31.002Z,87.46
2017-07-23T00:01:46.490Z,87.55
2017-07-23T00:03:02.167Z,87.55
2017-07-23T00:04:17.598Z,87.84
2017-07-23T00:05:31.749Z,87.84
2017-07-23T00:06:47.213Z,88.23
2017-07-23T00:08:03.016Z,88.32
2017-07-23T00:09:18.494Z,88.13
2017-07-23T00:10:33.918Z,88.47
2017-07-23T00:11:49.359Z,88.47
2017-07-23T00:13:05.040Z,88.51
2017-07-23T00:14:20.524Z,88.38
2017-07-23T00:15:36.022Z,88.38
2017-07-23T00:16:51.540Z,88.51
2017-07-23T00:18:07.234Z,88.9
2017-07-23T00:19:22.719Z,89
2017-07-23T00:20:36.858Z,88.9
2017-07-23T00:21:52.305Z,88.81
2017-07-23T00:23:08.047Z,88.81
2017-07-23T00:24:23.508Z,89
2017-07-23T00:25:39.252Z,88.9
2017-07-23T00:26:54.710Z,89
2017-07-23T00:28:10.419Z,88.71
2017-07-23T00:29:25.683Z,89.58
2017-07-23T00:30:41.200Z,89.67
2017-07-23T00:31:56.645Z,89
2017-07-23T00:33:12.383Z,89.48
2017-07-23T00:34:27.861Z,89.58
2017-07-23T00:35:43.251Z,89.29
2017-07-23T00:36:58.748Z,89.39
2017-07-23T00:38:14.487Z,89.29
2017-07-23T00:39:29.988Z,89.39
2017-07-23T00:40:44.151Z,89.48
2017-07-23T00:41:58.311Z,89.48
2017-07-23T00:43:27.440Z,89.29
2017-07-23T00:44:43.116Z,89.39
2017-07-23T00:45:58.609Z,89.29
2017-07-23T00:47:14.220Z,89.58
2017-07-23T00:48:30.150Z,89.48
2017-07-23T00:49:45.603Z,89.53
2017-07-23T00:51:01.088Z,89.53
2017-07-23T00:52:16.692Z,89.43
2017-07-23T00:53:32.388Z,89.82
2017-07-23T00:54:47.936Z,90.01
2017-07-23T00:56:03.363Z,89.82
2017-07-23T00:57:18.418Z,89.82
2017-07-23T00:58:34.261Z,90.3
2017-07-23T00:59:49.713Z,90.2
2017-07-23T01:01:05.171Z,90.4
2017-07-23T01:02:20.629Z,90.11
2017-07-23T01:03:35.012Z,89.82
2017-07-23T01:04:50.447Z,90.5
2017-07-23T01:06:05.950Z,90.01
2017-07-23T01:07:21.576Z,90.35
2017-07-23T01:08:37.284Z,90.5
2017-07-23T01:09:52.841Z,90.97
2017-07-23T01:11:08.332Z,90.78
2017-07-23T01:12:22.341Z,90.69
2017-07-23T01:13:38.045Z,91.07
2017-07-23T01:14:53.530Z,90.93
2017-07-23T01:16:08.959Z,91.07
2017-07-23T01:17:24.437Z,90.78
2017-07-23T01:18:39.021Z,90.97
2017-07-23T01:19:54.628Z,91.36
2017-07-23T01:21:09.938Z,91.17
2017-07-23T01:22:25.552Z,91.22
2017-07-23T01:23:41.225Z,91.27
2017-07-23T01:24:56.695Z,91.36
2017-07-23T01:26:10.852Z,91.41
2017-07-23T01:27:26.301Z,91.13
2017-07-23T01:28:40.435Z,91.31
2017-07-23T01:29:56.127Z,91.41
2017-07-23T01:31:11.611Z,91.31
2017-07-23T01:32:27.079Z,91.51
2017-07-23T01:33:42.558Z,91.51
2017-07-23T01:34:58.297Z,91.6
2017-07-23T01:36:13.990Z,91.41
2017-07-23T01:37:29.463Z,91.41
2017-07-23T01:38:45.153Z,91.89
2017-07-23T01:40:01.083Z,91.6
2017-07-23T01:41:16.565Z,91.8
2017-07-23T01:42:31.969Z,91.8
2017-07-23T01:43:47.448Z,91.65
2017-07-23T01:45:03.302Z,91.6
2017-07-23T01:46:18.780Z,91.89
2017-07-23T01:47:34.221Z,91.84
2017-07-23T01:48:49.717Z,91.75
2017-07-23T01:50:05.596Z,91.99
2017-07-23T01:51:21.077Z,91.7
2017-07-23T01:52:36.525Z,91.41
2017-07-23T01:53:51.969Z,91.99
2017-07-23T01:55:07.655Z,92.47
2017-07-23T01:56:23.113Z,92.18
2017-07-23T01:57:38.594Z,91.8
2017-07-23T01:58:54.250Z,91.99
2017-07-23T02:00:09.917Z,92.57
2017-07-23T02:01:25.498Z,92.57
2017-07-23T02:02:40.944Z,92.57
2017-07-23T02:03:56.403Z,92.18
2017-07-23T02:05:12.238Z,92.28
2017-07-23T02:06:27.688Z,92.47
2017-07-23T02:07:43.142Z,93.05
2017-07-23T02:08:58.517Z,92.38
2017-07-23T02:10:14.307Z,93.05
2017-07-23T02:11:29.776Z,93.05
2017-07-23T02:12:43.803Z,93.15
2017-07-23T02:13:59.562Z,93.05
2017-07-23T02:15:15.391Z,93.15
2017-07-23T02:16:30.829Z,92.76
2017-07-23T02:17:46.311Z,93.53
2017-07-23T02:19:00.517Z,93.15
2017-07-23T02:20:16.372Z,93.53
2017-07-23T02:21:31.810Z,93.24
2017-07-23T02:22:47.282Z,93.53
2017-07-23T02:24:02.721Z,93.53
2017-07-23T02:25:18.426Z,93.43
2017-07-23T02:26:33.851Z,93.62
2017-07-23T02:27:49.319Z,93.82
2017-07-23T02:29:04.768Z,93.72
2017-07-23T02:30:20.503Z,94.01
2017-07-23T02:31:35.951Z,93.62
2017-07-23T02:32:51.422Z,93.43
2017-07-23T02:34:06.917Z,93.82
2017-07-23T02:35:22.665Z,93.82
2017-07-23T02:36:38.149Z,93.62
2017-07-23T02:37:53.589Z,93.82
2017-07-23T02:39:09.069Z,93.82
2017-07-23T02:40:23.405Z,93.72
2017-07-23T02:41:38.860Z,93.72
2017-07-23T02:42:54.302Z,93.82
2017-07-23T02:44:09.847Z,93.72
2017-07-23T02:45:24.270Z,93.82
2017-07-23T02:46:38.645Z,93.72
2017-07-23T02:47:54.087Z,94.01
2017-07-23T02:49:09.508Z,93.72
2017-07-23T02:50:25.202Z,93.91
2017-07-23T02:51:40.645Z,93.43
2017-07-23T02:52:56.079Z,93.72
2017-07-23T02:54:11.486Z,93.62
2017-07-23T02:55:25.923Z,94.2
2017-07-23T02:56:41.539Z,94.1
2017-07-23T02:57:56.971Z,94.3
2017-07-23T02:59:12.432Z,94.4
2017-07-23T03:00:28.102Z,94.2
2017-07-23T03:01:43.533Z,94.1
2017-07-23T03:02:58.986Z,94.3
2017-07-23T03:04:14.457Z,94.4
2017-07-23T03:05:30.106Z,94.49
2017-07-23T03:06:45.502Z,94.49
2017-07-23T03:08:00.946Z,94.49
2017-07-23T03:09:16.401Z,94.4
2017-07-23T03:10:30.781Z,94.4
2017-07-23T03:11:46.267Z,94.78
2017-07-23T03:13:01.494Z,94.68
2017-07-23T03:14:16.973Z,94.68
2017-07-23T03:15:32.708Z,94.97
2017-07-23T03:16:48.342Z,94.73
2017-07-23T03:18:03.813Z,94.73
2017-07-23T03:19:19.230Z,94.73
2017-07-23T03:20:33.619Z,94.82
2017-07-23T03:21:49.086Z,94.82
2017-07-23T03:23:04.522Z,94.82
2017-07-23T03:24:20.192Z,94.92
2017-07-23T03:25:36.074Z,94.82
2017-07-23T03:26:51.347Z,94.54
2017-07-23T03:28:06.765Z,94.44
2017-07-23T03:29:20.911Z,94.44
2017-07-23T03:30:36.598Z,94.92
2017-07-23T03:31:50.786Z,94.92
2017-07-23T03:33:06.392Z,94.82
2017-07-23T03:34:21.847Z,94.82
2017-07-23T03:35:37.541Z,94.64
2017-07-23T03:36:52.999Z,94.92
2017-07-23T03:38:08.476Z,94.54
2017-07-23T03:39:23.982Z,95.02
2017-07-23T03:40:39.691Z,94.64
2017-07-23T03:41:55.133Z,95.31
2017-07-23T03:43:10.236Z,95.31
2017-07-23T03:44:25.714Z,95.21
2017-07-23T03:45:41.610Z,95.4
2017-07-23T03:46:54.475Z,95.21
2017-07-23T03:48:09.958Z,94.64
2017-07-23T03:49:25.410Z,94.68
2017-07-23T03:50:41.102Z,94.59
2017-07-23T03:51:55.253Z,94.68
2017-07-23T03:53:09.404Z,95.17
2017-07-23T03:54:24.859Z,95.17
2017-07-23T03:55:40.633Z,95.17
2017-07-23T03:56:56.264Z,94.97
2017-07-23T03:58:11.667Z,94.78
2017-07-23T03:59:27.264Z,94.01
2017-07-23T04:00:43.168Z,93.53
2017-07-23T04:01:58.626Z,93.24
2017-07-23T04:03:14.076Z,92.38
2017-07-23T04:04:29.601Z,92.38
2017-07-23T04:05:45.297Z,92.57
2017-07-23T04:07:00.768Z,92.76
2017-07-23T04:08:15.954Z,91.75
2017-07-23T04:09:31.378Z,91.94
2017-07-23T04:10:45.759Z,92.04
2017-07-23T04:12:01.228Z,91.36
2017-07-23T04:13:16.701Z,91.66
2017-07-23T04:14:32.063Z,91.46
2017-07-23T04:15:47.720Z,91.46
2017-07-23T04:17:01.878Z,91.85
2017-07-23T04:18:17.448Z,91.46
2017-07-23T04:19:32.920Z,91.46
2017-07-23T04:20:48.652Z,91.85
2017-07-23T04:22:16.392Z,91.66
2017-07-23T04:23:31.859Z,92.23
2017-07-23T04:24:47.874Z,92.13
2017-07-23T04:26:03.297Z,92.23
2017-07-23T04:27:18.846Z,91.75
2017-07-23T04:28:34.326Z,92.23
2017-07-23T04:29:50.318Z,91.36
2017-07-23T04:31:05.715Z,91.36
2017-07-23T04:32:21.331Z,92.13
2017-07-23T04:33:36.829Z,92.23
2017-07-23T04:34:51.372Z,92.61
2017-07-23T04:36:06.803Z,92.33
2017-07-23T04:37:22.250Z,92.33
2017-07-23T04:38:37.750Z,92.23
2017-07-23T04:39:50.709Z,92.23
2017-07-23T04:41:06.170Z,92.23
2017-07-23T04:42:21.641Z,93.19
2017-07-23T04:43:37.101Z,92.91
2017-07-23T04:44:52.553Z,92.91
2017-07-23T04:46:08.057Z,92.91
2017-07-23T04:47:23.490Z,93.1
2017-07-23T04:48:38.943Z,93.77
2017-07-23T04:49:54.813Z,93.29
2017-07-23T04:51:10.237Z,93.58
2017-07-23T04:52:25.730Z,92.71
2017-07-23T04:53:41.214Z,93
2017-07-23T04:54:56.545Z,93
2017-07-23T04:56:12.010Z,93.1
2017-07-23T04:57:27.514Z,93
2017-07-23T04:58:42.982Z,92.91
2017-07-23T04:59:58.691Z,92.28
2017-07-23T05:01:14.444Z,92.28
2017-07-23T05:02:28.677Z,93.05
2017-07-23T05:03:44.141Z,92.47
2017-07-23T05:04:59.916Z,92.47
2017-07-23T05:06:15.362Z,92.47
2017-07-23T05:07:30.793Z,92.66
2017-07-23T05:08:44.922Z,92.47
2017-07-23T05:10:00.752Z,92.08
2017-07-23T05:11:15.841Z,91.8
2017-07-23T05:12:31.294Z,91.8
2017-07-23T05:13:46.946Z,91.41
2017-07-23T05:15:00.967Z,91.22
2017-07-23T05:16:16.675Z,91.6
2017-07-23T05:17:32.129Z,91.13
2017-07-23T05:18:47.589Z,91.55
2017-07-23T05:20:03.302Z,91.27
2017-07-23T05:21:18.694Z,90.69
2017-07-23T05:22:34.202Z,90.78
2017-07-23T05:23:49.912Z,90.69
2017-07-23T05:25:04.355Z,90.78
2017-07-23T05:26:19.792Z,90.78
2017-07-23T05:27:35.200Z,90.97
2017-07-23T05:28:50.693Z,90.69
2017-07-23T05:30:06.349Z,90.3
2017-07-23T05:31:21.764Z,90.2
2017-07-23T05:32:35.928Z,90.3
2017-07-23T05:33:51.373Z,89.92
2017-07-23T05:35:07.081Z,90.69
2017-07-23T05:36:21.424Z,90.5
2017-07-23T05:37:36.852Z,89.82
2017-07-23T05:38:52.279Z,90.59
2017-07-23T05:40:05.346Z,90.01
2017-07-23T05:41:20.831Z,90.4
2017-07-23T05:42:36.311Z,90.01
2017-07-23T05:43:51.761Z,90.3
2017-07-23T05:45:07.560Z,90.5
2017-07-23T05:46:23.017Z,90.4
2017-07-23T05:47:38.478Z,90.5
2017-07-23T05:48:54.197Z,90.3
2017-07-23T05:50:09.863Z,90.3
2017-07-23T05:51:25.288Z,90.4
2017-07-23T05:52:40.752Z,90.55
2017-07-23T05:53:56.296Z,90.45
2017-07-23T05:55:11.998Z,90.45
2017-07-23T05:56:27.480Z,90.55
2017-07-23T05:57:42.998Z,90.64
2017-07-23T05:58:58.429Z,90.64
2017-07-23T06:00:13.234Z,90.73
2017-07-23T06:01:28.748Z,91.22
2017-07-23T06:02:44.216Z,90.83
2017-07-23T06:03:59.680Z,90.93
2017-07-23T06:05:15.393Z,90.83
2017-07-23T06:06:30.849Z,90.88
2017-07-23T06:07:46.527Z,90.88
2017-07-23T06:09:01.969Z,90.78
2017-07-23T06:10:17.684Z,90.69
2017-07-23T06:11:33.339Z,90.5
2017-07-23T06:12:47.354Z,90.5
2017-07-23T06:14:02.766Z,90.3
2017-07-23T06:15:18.118Z,90.5
2017-07-23T06:16:32.273Z,90.5
2017-07-23T06:17:47.771Z,90.5
2017-07-23T06:19:03.211Z,90.5
2017-07-23T06:20:19.116Z,90.5
2017-07-23T06:21:34.587Z,90.4
2017-07-23T06:22:50.021Z,90.3
2017-07-23T06:24:05.493Z,90.5
2017-07-23T06:25:21.187Z,90.78
2017-07-23T06:26:36.772Z,89.82
2017-07-23T06:27:52.250Z,90.5
2017-07-23T06:29:07.839Z,89.82
2017-07-23T06:30:23.629Z,90.16
2017-07-23T06:31:39.074Z,90.44
2017-07-23T06:32:54.739Z,90.16
2017-07-23T06:34:10.380Z,89.77
2017-07-23T06:35:24.768Z,90.06
2017-07-23T06:36:38.860Z,90.06
2017-07-23T06:37:54.361Z,90.06
2017-07-23T06:39:09.808Z,89.48
2017-07-23T06:40:25.540Z,89.58
2017-07-23T06:41:40.987Z,89.19
2017-07-23T06:42:55.119Z,89.29
2017-07-23T06:44:10.549Z,89.29
2017-07-23T06:45:24.630Z,89.48
2017-07-23T06:46:40.571Z,89.58
2017-07-23T06:47:56.002Z,89.39
2017-07-23T06:49:11.470Z,89.48
2017-07-23T06:50:26.935Z,89.48
2017-07-23T06:51:42.744Z,89.09
2017-07-23T06:52:58.189Z,88.61
2017-07-23T06:54:12.302Z,88.51
2017-07-23T06:55:27.987Z,88.42
2017-07-23T06:56:42.454Z,88.9
2017-07-23T06:57:58.002Z,88.71
2017-07-23T06:59:13.404Z,88.71
2017-07-23T07:00:28.855Z,89.39
2017-07-23T07:01:44.584Z,88.61
2017-07-23T07:02:58.774Z,88.23
2017-07-23T07:04:14.303Z,88.51
2017-07-23T07:05:28.480Z,88.32
2017-07-23T07:06:44.200Z,88.42
2017-07-23T07:07:59.937Z,88.42
2017-07-23T07:09:15.447Z,88.13
2017-07-23T07:10:31.291Z,88.71
2017-07-23T07:11:47.009Z,88.81
2017-07-23T07:13:02.472Z,88.81
2017-07-23T07:14:16.602Z,88.81
2017-07-23T07:15:30.947Z,88.57
2017-07-23T07:16:46.681Z,88.85
2017-07-23T07:18:02.124Z,88.67
2017-07-23T07:19:17.702Z,89.43
2017-07-23T07:20:33.214Z,88.47
2017-07-23T07:21:48.960Z,88.85
2017-07-23T07:23:04.385Z,88.81
2017-07-23T07:24:19.946Z,88.61
2017-07-23T07:25:35.397Z,88.81
2017-07-23T07:26:50.757Z,88.51
2017-07-23T07:28:06.240Z,88.23
2017-07-23T07:29:21.682Z,88.32
2017-07-23T07:30:37.087Z,88.04
2017-07-23T07:31:51.495Z,87.84
2017-07-23T07:33:05.851Z,87.94
2017-07-23T07:34:21.307Z,88.04
2017-07-23T07:35:36.822Z,87.84
2017-07-23T07:36:52.475Z,87.94
2017-07-23T07:38:07.560Z,87.79
2017-07-23T07:39:23.007Z,87.4
2017-07-23T07:40:37.171Z,87.5
2017-07-23T07:41:52.858Z,87.7
2017-07-23T07:43:08.709Z,87.5
2017-07-23T07:44:24.149Z,87.3
2017-07-23T07:45:39.625Z,87.7
2017-07-23T07:46:55.363Z,87.5
2017-07-23T07:48:10.930Z,87.3
2017-07-23T07:49:26.345Z,87.02
2017-07-23T07:50:41.835Z,86.44
2017-07-23T07:51:57.564Z,86.68
2017-07-23T07:53:13.052Z,86.35
2017-07-23T07:54:28.529Z,86.68
2017-07-23T07:55:42.700Z,85.71
2017-07-23T07:56:58.421Z,85.42
2017-07-23T07:58:13.506Z,86
2017-07-23T07:59:28.972Z,85.23
2017-07-23T08:00:44.337Z,85.17
2017-07-23T08:02:13.655Z,84.11
2017-07-23T08:03:29.172Z,84.44
2017-07-23T08:04:44.827Z,83.96
2017-07-23T08:06:00.305Z,83.62
2017-07-23T08:07:16.046Z,82.75
2017-07-23T08:08:31.485Z,81.82
2017-07-23T08:09:47.173Z,81.44
2017-07-23T08:11:02.637Z,80.8
2017-07-23T08:12:18.427Z,80.22
2017-07-23T08:13:33.943Z,79.45
2017-07-23T08:14:48.412Z,79.2
2017-07-23T08:16:03.814Z,79.1
2017-07-23T08:17:19.530Z,78.71
2017-07-23T08:18:35.027Z,78.13
2017-07-23T08:19:50.677Z,77.84
2017-07-23T08:21:06.413Z,77.94
2017-07-23T08:22:22.317Z,77.84
2017-07-23T08:23:37.837Z,77.65
2017-07-23T08:24:53.337Z,77.36
2017-07-23T08:26:08.820Z,76.78
2017-07-23T08:27:24.531Z,77.03
2017-07-23T08:28:40.188Z,77.13
2017-07-23T08:29:54.378Z,77.32
2017-07-23T08:31:09.801Z,76.55
2017-07-23T08:32:25.522Z,75.97
2017-07-23T08:33:41.009Z,75.58
2017-07-23T08:34:56.548Z,75.39
2017-07-23T08:36:12.091Z,75.48
2017-07-23T08:37:27.873Z,75.68
2017-07-23T08:38:42.058Z,75.93
2017-07-23T08:39:57.563Z,72.94
2017-07-23T08:41:13.065Z,73.9
2017-07-23T08:42:28.953Z,74.48
2017-07-23T08:43:44.659Z,74.29
2017-07-23T08:45:00.378Z,73.8
2017-07-23T08:46:15.889Z,73.03
2017-07-23T08:47:31.915Z,73.19
2017-07-23T08:48:47.045Z,72.22
2017-07-23T08:50:02.499Z,72.42
2017-07-23T08:51:17.956Z,72.61
2017-07-23T08:52:33.682Z,73.19
2017-07-23T08:53:49.190Z,72.61
2017-07-23T08:55:04.628Z,72.32
2017-07-23T08:56:20.208Z,71.64
2017-07-23T08:57:35.928Z,71.94
2017-07-23T08:58:51.364Z,71.84
2017-07-23T09:00:06.844Z,69.23
2017-07-23T09:01:22.299Z,70.52
2017-07-23T09:02:38.049Z,70.42
2017-07-23T09:03:53.521Z,70.36
2017-07-23T09:05:09.180Z,69.53
2017-07-23T09:06:24.699Z,68.43
2017-07-23T09:07:40.352Z,67.69
2017-07-23T09:08:55.637Z,66.89
2017-07-23T09:10:11.350Z,64.82
2017-07-23T09:11:25.388Z,63.42
2017-07-23T09:12:41.162Z,61.61
2017-07-23T09:13:56.677Z,61.9
2017-07-23T09:15:12.077Z,61.32
2017-07-23T09:16:27.768Z,60.18
2017-07-23T09:17:43.556Z,57.95
2017-07-23T09:18:59.163Z,57.82
2017-07-23T09:20:14.879Z,56.32
2017-07-23T09:21:30.375Z,53.42
2017-07-23T09:22:46.290Z,53.72
2017-07-23T09:24:01.819Z,53.94
2017-07-23T09:25:17.329Z,53.65
2017-07-23T09:26:32.786Z,52.5
2017-07-23T09:27:48.705Z,52.24
2017-07-23T09:29:04.158Z,50.8
2017-07-23T09:30:18.364Z,49.37
2017-07-23T09:31:33.833Z,49.29
2017-07-23T09:32:49.617Z,48.24
2017-07-23T09:34:05.116Z,46.11
2017-07-23T09:35:20.604Z,46.78
2017-07-23T09:36:36.122Z,46.29
2017-07-23T09:37:52.290Z,45.61
2017-07-23T09:39:07.761Z,46.56
2017-07-23T09:40:23.247Z,46.07
2017-07-23T09:41:38.724Z,45.31
2017-07-23T09:42:54.465Z,45.23
2017-07-23T09:44:09.954Z,43.96
2017-07-23T09:45:25.443Z,42.99
2017-07-23T09:46:41.163Z,43.48
2017-07-23T09:47:56.975Z,43.77
2017-07-23T09:49:12.485Z,43.18
2017-07-23T09:50:28.051Z,42.55
2017-07-23T09:51:43.610Z,43.99
2017-07-23T09:52:59.407Z,44.34
2017-07-23T09:54:14.915Z,45.39
2017-07-23T09:55:29.084Z,46.37
2017-07-23T09:56:44.610Z,46.34
2017-07-23T09:58:00.398Z,45.78
2017-07-23T09:59:16.080Z,45.2
2017-07-23T10:00:31.796Z,45.22
2017-07-23T10:01:47.536Z,44.56
2017-07-23T10:03:04.065Z,43.61
2017-07-23T10:04:19.615Z,44.8
2017-07-23T10:05:35.318Z,44.8
2017-07-23T10:06:50.815Z,44.29
2017-07-23T10:08:06.560Z,44.07
2017-07-23T10:09:22.208Z,43.19
2017-07-23T10:10:37.697Z,44.56
2017-07-23T10:11:53.205Z,44.95
2017-07-23T10:13:08.920Z,43.9
2017-07-23T10:14:24.318Z,43.14
2017-07-23T10:15:39.813Z,43.61
2017-07-23T10:16:55.345Z,43.32
2017-07-23T10:18:11.179Z,42.75
2017-07-23T10:19:26.640Z,43.61
2017-07-23T10:20:41.118Z,43.99
2017-07-23T10:21:55.466Z,44.07
2017-07-23T10:23:11.181Z,44.34
2017-07-23T10:24:25.551Z,45.1
2017-07-23T10:25:41.040Z,45.86
2017-07-23T10:26:56.530Z,46.32
2017-07-23T10:28:12.316Z,47.17
2017-07-23T10:29:27.788Z,47.54
2017-07-23T10:30:43.476Z,48.3
2017-07-23T10:31:58.602Z,48.66
2017-07-23T10:33:14.360Z,49.34
2017-07-23T10:34:30.056Z,49.71
2017-07-23T10:35:45.529Z,49.61
2017-07-23T10:37:00.984Z,49.39
2017-07-23T10:38:16.696Z,49.58
2017-07-23T10:39:32.161Z,49.95
2017-07-23T10:40:47.666Z,50.53
2017-07-23T10:42:02.978Z,51.18
2017-07-23T10:43:18.704Z,51.76
2017-07-23T10:44:34.183Z,51.67
2017-07-23T10:45:49.666Z,52.06
2017-07-23T10:47:05.327Z,51.74
2017-07-23T10:48:21.042Z,52.42
2017-07-23T10:49:36.493Z,53.09
2017-07-23T10:50:52.025Z,53.07
2017-07-23T10:52:07.536Z,52.8
2017-07-23T10:53:23.262Z,52.68
2017-07-23T10:54:38.729Z,52.9
2017-07-23T10:55:54.247Z,52.9
2017-07-23T10:57:09.931Z,52.9
2017-07-23T10:58:25.794Z,52.12
2017-07-23T10:59:41.265Z,51.47
2017-07-23T11:00:56.434Z,49.37
2017-07-23T11:02:12.014Z,49.32
2017-07-23T11:03:27.994Z,48.75
2017-07-23T11:04:43.487Z,47.3
2017-07-23T11:05:59.033Z,47.52
2017-07-23T11:07:14.513Z,46.64
2017-07-23T11:08:30.462Z,45.98
2017-07-23T11:09:46.345Z,44.45
2017-07-23T11:11:01.843Z,43.01
2017-07-23T11:12:17.306Z,42.35
2017-07-23T11:13:33.102Z,43.44
2017-07-23T11:14:48.867Z,42.98
2017-07-23T11:16:04.315Z,40.73
2017-07-23T11:17:19.812Z,40.08
2017-07-23T11:18:35.598Z,39.02
2017-07-23T11:19:51.121Z,39.22
2017-07-23T11:21:06.553Z,38.06
2017-07-23T11:22:20.758Z,39.53
2017-07-23T11:23:36.515Z,37.3
2017-07-23T11:25:22.986Z,36.15
2017-07-23T11:26:38.488Z,36.73
2017-07-23T11:27:54.239Z,38.09
2017-07-23T11:29:09.492Z,37.77
2017-07-23T11:30:23.699Z,39.06
2017-07-23T11:31:39.451Z,38.26
2017-07-23T11:32:55.240Z,38.43
2017-07-23T11:34:10.755Z,39
2017-07-23T11:35:26.249Z,38.98
2017-07-23T11:38:11.112Z,40.48
2017-07-23T11:39:26.773Z,40.85
2017-07-23T11:40:42.333Z,41.83
2017-07-23T11:41:56.507Z,42.49
2017-07-23T11:43:12.223Z,42.49
2017-07-23T11:44:27.895Z,43.24
2017-07-23T11:45:43.476Z,43.15
2017-07-23T11:46:59.288Z,42.44
2017-07-23T11:48:15.027Z,43.4
2017-07-23T11:49:30.525Z,43.18
2017-07-23T11:50:46.027Z,43.66
2017-07-23T11:52:01.558Z,43.76
2017-07-23T11:53:17.306Z,44.03
2017-07-23T11:54:32.771Z,44.61
2017-07-23T11:55:48.273Z,45.1
2017-07-23T11:57:03.815Z,45.78
2017-07-23T11:58:19.613Z,45.68
2017-07-23T11:59:35.115Z,46.07
2017-07-23T12:00:50.629Z,45.68
2017-07-23T12:02:06.187Z,45.8
2017-07-23T12:03:21.564Z,45.61
2017-07-23T12:04:37.123Z,45.12
2017-07-23T12:05:52.608Z,45.14
2017-07-23T12:07:06.813Z,44.95
2017-07-23T12:08:22.752Z,45.43
2017-07-23T12:09:38.291Z,44.46
2017-07-23T12:10:53.830Z,44.75
2017-07-23T12:12:09.354Z,45.04
2017-07-23T12:13:25.220Z,44.75
2017-07-23T12:14:40.790Z,44.75
2017-07-23T12:15:56.285Z,44.78
2017-07-23T12:17:11.766Z,43.61
2017-07-23T12:18:26.227Z,42.46
2017-07-23T12:19:42.001Z,41.77
2017-07-23T12:20:57.522Z,41.69
2017-07-23T12:22:12.688Z,42.18
2017-07-23T12:23:28.462Z,41.8
2017-07-23T12:24:43.978Z,41.53
2017-07-23T12:25:59.492Z,38.54
2017-07-23T12:27:13.892Z,36.69
2017-07-23T12:28:29.849Z,35.93
2017-07-23T12:29:42.695Z,37.87
2017-07-23T12:30:56.762Z,37.77
2017-07-23T12:32:12.259Z,37.02
2017-07-23T12:33:27.954Z,37.02
2017-07-23T12:34:43.690Z,36.63
2017-07-23T12:35:59.204Z,36.63
2017-07-23T12:37:14.819Z,34.48
2017-07-23T12:38:29.293Z,35.26
2017-07-23T12:39:45.070Z,36.12
2017-07-23T12:41:00.552Z,36.8
2017-07-23T12:42:14.813Z,36.2
2017-07-23T12:43:30.566Z,35.42
2017-07-23T12:44:46.322Z,36.2
2017-07-23T12:46:02.004Z,36.79
2017-07-23T12:47:16.218Z,36.4
2017-07-23T12:48:32.024Z,36.1
2017-07-23T12:49:47.667Z,35.33
2017-07-23T12:51:03.115Z,35.23
2017-07-23T12:52:17.340Z,35.05
2017-07-23T12:53:31.906Z,35.15
2017-07-23T12:54:47.539Z,33.98
2017-07-23T12:56:03.040Z,34.76
2017-07-23T12:57:18.577Z,35.15
2017-07-23T12:58:34.309Z,35.23
2017-07-23T12:59:50.114Z,35.23
2017-07-23T13:01:05.825Z,34.84
2017-07-23T13:02:21.306Z,34.53
2017-07-23T13:03:37.174Z,34.53
2017-07-23T13:04:52.665Z,34.72
2017-07-23T13:06:08.361Z,35.19
2017-07-23T13:07:23.868Z,35.29
2017-07-23T13:08:39.767Z,36.07
2017-07-23T13:09:55.286Z,36.75
2017-07-23T13:11:10.836Z,36.75
2017-07-23T13:12:26.313Z,36.75
2017-07-23T13:13:42.049Z,36.93
2017-07-23T13:14:57.633Z,37.52
2017-07-23T13:16:13.188Z,38.09
2017-07-23T13:17:28.721Z,38.67
2017-07-23T13:18:44.470Z,38.75
2017-07-23T13:19:59.971Z,38.95
2017-07-23T13:21:14.192Z,39.72
2017-07-23T13:22:29.671Z,39.9
2017-07-23T13:23:45.458Z,39.61
2017-07-23T13:25:01.125Z,39.8
2017-07-23T13:26:16.617Z,39.9
2017-07-23T13:27:32.106Z,40.36
2017-07-23T13:28:47.872Z,40.75
2017-07-23T13:30:03.413Z,40.75
2017-07-23T13:31:18.917Z,40.67
2017-07-23T13:32:34.636Z,39.8
2017-07-23T13:33:50.628Z,39.51
2017-07-23T13:35:06.118Z,39.9
2017-07-23T13:36:21.610Z,39.51
2017-07-23T13:37:37.115Z,39.9
2017-07-23T13:38:52.858Z,39.92
2017-07-23T13:40:08.373Z,38.75
2017-07-23T13:41:23.861Z,39.34
2017-07-23T13:42:39.530Z,38.95
2017-07-23T13:43:55.372Z,37.9
2017-07-23T13:45:10.910Z,38.65
2017-07-23T13:46:26.593Z,36.71
2017-07-23T13:47:42.321Z,37.68
2017-07-23T13:48:58.092Z,37.3
2017-07-23T13:50:13.600Z,37.28
2017-07-23T13:51:29.080Z,38.44
2017-07-23T13:52:44.592Z,38.44
2017-07-23T13:54:00.312Z,38.34
2017-07-23T13:55:15.719Z,38.62
2017-07-23T13:56:31.471Z,39.59
2017-07-23T13:57:47.203Z,39.78
2017-07-23T13:59:02.977Z,39.98
2017-07-23T14:00:18.521Z,38.93
2017-07-23T14:01:34.179Z,38.32
2017-07-23T14:02:48.566Z,38.23
2017-07-23T14:04:04.340Z,38.62
2017-07-23T14:05:19.847Z,38.04
2017-07-23T14:06:35.331Z,38.71
2017-07-23T14:07:50.886Z,39.49
2017-07-23T14:09:06.658Z,39.69
2017-07-23T14:10:22.252Z,39.49
2017-07-23T14:11:38.069Z,38.23
2017-07-23T14:12:53.601Z,38.62
2017-07-23T14:14:09.630Z,38.99
2017-07-23T14:15:25.140Z,37.53
2017-07-23T14:16:40.633Z,38.4
2017-07-23T14:17:56.324Z,38.31
2017-07-23T14:19:12.286Z,38.6
2017-07-23T14:20:27.775Z,37.94
2017-07-23T14:21:43.277Z,37.65
2017-07-23T14:22:57.482Z,37.45
2017-07-23T14:24:13.049Z,36.97
2017-07-23T14:25:28.531Z,36.5
2017-07-23T14:26:44.043Z,35.33
2017-07-23T14:27:59.714Z,35.05
2017-07-23T14:29:15.466Z,35.82
2017-07-23T14:30:30.968Z,35.92
2017-07-23T14:31:46.622Z,35.82
2017-07-23T14:33:02.140Z,35.72
2017-07-23T14:34:17.917Z,35.14
2017-07-23T14:35:33.424Z,35.84
2017-07-23T14:36:49.028Z,35.74
2017-07-23T14:38:04.533Z,35.72
2017-07-23T14:39:19.005Z,35.92
2017-07-23T14:40:34.513Z,35.72
2017-07-23T14:41:50.030Z,35.92
2017-07-23T14:43:05.510Z,36.4
2017-07-23T14:44:21.293Z,35.82
2017-07-23T14:45:36.796Z,36.11
2017-07-23T14:46:52.323Z,36.3
2017-07-23T14:48:07.816Z,36.58
2017-07-23T14:49:23.620Z,36.48
2017-07-23T14:50:39.230Z,35.8
2017-07-23T14:51:54.330Z,35.32
2017-07-23T14:53:09.826Z,36.3
2017-07-23T14:54:25.669Z,35.82
2017-07-23T14:55:41.266Z,35.72
2017-07-23T14:56:56.756Z,36.4
2017-07-23T14:58:10.981Z,36.11
2017-07-23T14:59:26.766Z,34.95
2017-07-23T15:00:42.238Z,35.53
2017-07-23T15:01:57.784Z,35.82
2017-07-23T15:03:13.278Z,36
2017-07-23T15:04:27.729Z,36.29
2017-07-23T15:05:43.285Z,36.48
2017-07-23T15:06:58.777Z,36.68
2017-07-23T15:08:14.480Z,35.8
2017-07-23T15:09:30.434Z,36.19
2017-07-23T15:10:45.945Z,35.9
2017-07-23T15:12:00.132Z,35.41
2017-07-23T15:13:15.835Z,35.8
2017-07-23T15:14:29.900Z,36
2017-07-23T15:15:45.692Z,36.48
2017-07-23T15:17:01.295Z,36.58
2017-07-23T15:18:16.770Z,36.66
2017-07-23T15:19:32.269Z,36.58
2017-07-23T15:20:48.021Z,36.48
2017-07-23T15:22:03.547Z,36.95
2017-07-23T15:23:19.080Z,36.97
2017-07-23T15:24:34.809Z,36.66
2017-07-23T15:25:50.610Z,36.76
2017-07-23T15:27:06.200Z,36.95
2017-07-23T15:28:21.717Z,36.18
2017-07-23T15:29:37.203Z,35.69
2017-07-23T15:30:53.060Z,36.46
2017-07-23T15:32:07.195Z,35.69
2017-07-23T15:33:22.698Z,36.08
2017-07-23T15:34:38.186Z,35.98
2017-07-23T15:35:54.029Z,36.56
2017-07-23T15:37:09.574Z,36.36
2017-07-23T15:38:25.033Z,36.08
2017-07-23T15:39:40.580Z,36.18
2017-07-23T15:40:56.610Z,36.08
2017-07-23T15:42:12.110Z,36.56
2017-07-23T15:43:27.709Z,36.08
2017-07-23T15:44:43.208Z,36.66
2017-07-23T15:45:59.165Z,36.85
2017-07-23T15:47:13.776Z,36.76
2017-07-23T15:48:29.303Z,36.66
2017-07-23T15:49:44.803Z,36.44
2017-07-23T15:51:00.543Z,36.74
2017-07-23T15:52:14.753Z,37.71
2017-07-23T15:53:30.478Z,36.93
2017-07-23T15:54:44.482Z,36.93
2017-07-23T15:56:00.337Z,37.03
2017-07-23T15:57:16.171Z,36.64
2017-07-23T15:58:31.684Z,36.74
2017-07-23T15:59:47.171Z,36.83
2017-07-23T16:01:03.004Z,36.64
2017-07-23T16:02:18.147Z,36.46
2017-07-23T16:03:32.512Z,36.54
2017-07-23T16:04:46.892Z,36.36
2017-07-23T16:06:02.608Z,36.76
2017-07-23T16:07:18.377Z,37.82
2017-07-23T16:08:33.904Z,37.05
2017-07-23T16:09:49.374Z,36.76
2017-07-23T16:11:04.887Z,36.66
2017-07-23T16:12:20.816Z,36.46
2017-07-23T16:13:36.281Z,36.76
2017-07-23T16:14:51.786Z,36.85
2017-07-23T16:16:07.375Z,36.95
2017-07-23T16:17:23.278Z,36.74
2017-07-23T16:18:38.751Z,36.54
2017-07-23T16:19:54.454Z,36.93